Time;durP1;ratioP1;P1;durP2;ratioP2;P2;SDS_P1;SDS_P2;PMS_P1;PMS_P2;Temp;Humidity;BMP_temperature;BMP_pressure;BME280_temperature;BME280_humidity;BME280_pressure;Samples;Min_cycle;Max_cycle;Signal;HPM_P1;HPM_P2
2022/06/23 00:00:19;;;;;;;4.63;1.80;;;;;;;16.20;50.53;98661.88;5077958;28;20102;-68
2022/06/23 00:02:46;;;;;;;7.22;2.05;;;;;;;16.09;50.93;98664.63;5096025;28;20140;-68
2022/06/23 00:05:18;;;;;;;3.65;1.75;;;;;;;16.06;51.24;98656.97;5095701;28;20143;-70
2022/06/23 00:07:51;;;;;;;4.00;2.00;;;;;;;16.03;51.48;98666.19;5081974;28;20139;-68
2022/06/23 00:10:23;;;;;;;3.28;1.83;;;;;;;16.02;51.04;98660.97;5075050;28;20048;-69
2022/06/23 00:12:52;;;;;;;2.65;1.50;;;;;;;16.01;51.45;98659.31;5057128;28;20053;-68
2022/06/23 00:15:36;;;;;;;5.07;1.90;;;;;;;16.01;51.47;98665.75;5075397;28;20105;-68
2022/06/23 00:18:07;;;;;;;4.90;1.67;;;;;;;15.98;51.15;98655.31;5084329;28;20078;-68
2022/06/23 00:20:47;;;;;;;6.88;1.75;;;;;;;15.96;51.05;98663.31;5094352;28;20039;-69
2022/06/23 00:23:18;;;;;;;3.63;1.88;;;;;;;15.94;51.79;98665.72;5095293;28;20479;-69
2022/06/23 00:25:52;;;;;;;3.10;1.80;;;;;;;15.91;51.69;98665.66;5095300;28;20128;-69
2022/06/23 00:28:24;;;;;;;7.63;1.70;;;;;;;15.91;51.73;98669.28;5076991;28;20090;-68
2022/06/23 00:30:58;;;;;;;4.78;1.55;;;;;;;15.88;51.67;98667.28;5095438;28;20142;-69
2022/06/23 00:33:37;;;;;;;2.85;1.60;;;;;;;15.88;51.90;98678.50;5095392;28;20106;-69
2022/06/23 00:36:18;;;;;;;4.47;1.93;;;;;;;15.85;51.75;98687.69;5094779;28;20098;-69
2022/06/23 00:38:45;;;;;;;2.60;1.73;;;;;;;15.83;51.78;98680.81;5094843;28;20147;-67
2022/06/23 00:41:21;;;;;;;2.67;1.63;;;;;;;15.85;51.72;98684.88;5077099;28;20052;-70
2022/06/23 00:43:51;;;;;;;2.40;1.60;;;;;;;15.79;52.00;98685.59;5095224;28;20056;-70
2022/06/23 00:46:26;;;;;;;4.35;1.95;;;;;;;15.77;52.05;98688.81;5094981;28;20432;-69
2022/06/23 00:49:00;;;;;;;4.50;1.80;;;;;;;15.75;52.25;98691.19;5076480;28;20040;-68
2022/06/23 00:51:50;;;;;;;4.88;2.40;;;;;;;15.73;51.93;98693.59;5095052;28;20048;-69
2022/06/23 00:54:41;;;;;;;4.63;1.60;;;;;;;15.69;52.47;98701.13;5094826;28;20054;-68
2022/06/23 00:57:20;;;;;;;2.97;1.60;;;;;;;15.70;52.38;98694.34;5094273;28;20064;-69
2022/06/23 00:59:55;;;;;;;4.20;1.60;;;;;;;15.71;52.21;98698.75;5095027;28;20048;-69
2022/06/23 01:02:49;;;;;;;4.32;1.60;;;;;;;15.68;52.36;98691.13;5094782;28;20437;-69
2022/06/23 01:05:39;;;;;;;7.90;1.70;;;;;;;15.65;52.68;98702.31;5085891;28;20095;-69
2022/06/23 01:08:17;;;;;;;2.65;1.60;;;;;;;15.63;52.46;98699.88;5093680;28;20121;-68
2022/06/23 01:10:46;;;;;;;9.13;2.15;;;;;;;15.58;52.80;98699.44;5094122;28;20521;-70
2022/06/23 01:13:43;;;;;;;3.00;1.70;;;;;;;15.58;52.65;98702.25;5094646;28;20457;-69
2022/06/23 01:16:26;;;;;;;3.75;1.80;;;;;;;15.56;52.79;98704.63;5076220;28;20077;-69
2022/06/23 01:19:18;;;;;;;4.78;1.65;;;;;;;15.54;53.02;98701.41;5094141;28;20055;-69
2022/06/23 01:21:52;;;;;;;2.60;1.60;;;;;;;15.49;53.02;98708.19;5094563;28;20090;-68
2022/06/23 01:24:37;;;;;;;6.75;1.70;;;;;;;15.45;52.85;98710.13;5094115;28;20062;-68
2022/06/23 01:27:32;;;;;;;2.70;1.42;;;;;;;15.43;53.23;98712.53;5093735;28;20058;-71
2022/06/23 01:30:08;;;;;;;5.20;1.70;;;;;;;15.44;53.14;98716.91;5094114;28;20054;-69
2022/06/23 01:32:42;;;;;;;3.72;1.40;;;;;;;15.43;53.11;98715.31;5093635;28;20572;-68
2022/06/23 01:35:13;;;;;;;3.17;1.58;;;;;;;15.45;53.23;98721.31;5094290;28;20593;-72
2022/06/23 01:38:10;;;;;;;4.57;1.50;;;;;;;15.41;53.41;98720.50;5093894;28;20090;-71
2022/06/23 01:41:33;;;;;;;4.97;1.75;;;;;;;15.41;53.53;98725.28;5087193;28;20400;-72
2022/06/23 01:44:26;;;;;;;4.88;2.40;;;;;;;15.40;53.36;98730.09;5054230;28;20070;-72
2022/06/23 01:46:57;;;;;;;3.00;1.40;;;;;;;15.42;53.72;98730.50;5065442;28;20139;-72
2022/06/23 01:49:30;;;;;;;3.38;1.60;;;;;;;15.46;53.81;98734.19;5073146;28;20053;-72
2022/06/23 01:52:10;;;;;;;4.65;2.00;;;;;;;15.51;53.38;98731.00;5076705;28;20122;-72
2022/06/23 01:54:39;;;;;;;4.72;1.55;;;;;;;15.54;53.13;98724.63;5093446;28;20575;-74
2022/06/23 01:57:20;;;;;;;3.00;1.67;;;;;;;15.55;53.53;98740.28;5093722;28;20123;-72
2022/06/23 02:00:00;;;;;;;4.38;1.80;;;;;;;15.57;53.71;98740.69;5093927;28;20411;-71
2022/06/23 02:02:50;;;;;;;3.33;1.50;;;;;;;15.61;52.68;98747.16;5093202;28;20055;-72
2022/06/23 02:05:24;;;;;;;2.25;1.45;;;;;;;15.64;52.68;98751.97;5093155;28;20052;-72
2022/06/23 02:07:54;;;;;;;5.43;2.03;;;;;;;15.64;52.63;98749.19;5093641;28;20052;-72
2022/06/23 02:10:49;;;;;;;3.13;1.35;;;;;;;15.60;53.15;98753.91;5093754;28;20054;-72
2022/06/23 02:13:41;;;;;;;4.38;1.75;;;;;;;15.62;53.49;98756.34;5093223;28;20047;-72
2022/06/23 02:16:18;;;;;;;4.43;1.80;;;;;;;15.63;53.66;98755.97;5093199;28;20094;-72
2022/06/23 02:18:55;;;;;;;7.00;1.80;;;;;;;15.64;53.65;98757.59;5092958;28;20048;-72
2022/06/23 02:21:39;;;;;;;5.43;1.92;;;;;;;15.61;54.17;98757.53;5093215;28;20503;-69
2022/06/23 02:24:17;;;;;;;7.97;1.73;;;;;;;15.60;54.14;98765.13;5074712;28;20054;-69
2022/06/23 02:27:14;;;;;;;16.13;1.90;;;;;;;15.61;54.18;98769.56;5093085;28;20048;-70
2022/06/23 02:30:02;;;;;;;4.40;1.83;;;;;;;15.63;54.39;98772.78;5075169;28;20044;-69
2022/06/23 02:32:53;;;;;;;4.78;1.88;;;;;;;15.66;54.52;98783.22;5093042;28;20048;-68
2022/06/23 02:35:27;;;;;;;4.57;1.73;;;;;;;15.68;54.17;98778.06;5093072;28;20048;-71
2022/06/23 02:38:03;;;;;;;9.48;2.10;;;;;;;15.72;54.34;98786.50;5092901;28;20101;-69
2022/06/23 02:40:32;;;;;;;3.47;1.50;;;;;;;15.76;54.49;98787.34;5074917;28;20067;-69
2022/06/23 02:43:22;;;;;;;3.67;1.50;;;;;;;15.79;54.30;98795.81;5092982;28;20036;-72
2022/06/23 02:45:48;;;;;;;3.17;1.70;;;;;;;15.86;54.03;98787.44;5092894;28;20063;-69
2022/06/23 02:48:24;;;;;;;6.15;1.70;;;;;;;15.97;53.25;98799.59;5092529;28;20281;-74
2022/06/23 02:51:20;;;;;;;3.50;1.63;;;;;;;16.02;53.01;98799.22;5092516;28;20044;-74
2022/06/23 02:53:55;;;;;;;4.05;1.80;;;;;;;16.03;52.42;98783.19;5092514;28;20048;-73
2022/06/23 02:57:03;;;;;;;4.40;1.40;;;;;;;16.15;52.21;98799.75;5092443;28;20502;-73
2022/06/23 02:59:30;;;;;;;4.63;1.77;;;;;;;16.16;51.89;98802.16;5075616;28;20132;-72
2022/06/23 03:02:09;;;;;;;2.47;1.58;;;;;;;16.22;51.92;98808.22;5092655;28;20052;-73
2022/06/23 03:04:41;;;;;;;3.05;1.52;;;;;;;16.21;52.23;98807.44;5092546;28;20048;-73
2022/06/23 03:07:34;;;;;;;5.40;1.48;;;;;;;16.17;51.79;98814.97;5092504;28;20048;-73
2022/06/23 03:10:14;;;;;;;13.13;1.80;;;;;;;16.18;52.21;98798.97;5092672;28;20121;-72
2022/06/23 03:12:49;;;;;;;2.60;1.40;;;;;;;16.16;52.12;98810.56;5092592;28;20529;-69
2022/06/23 03:15:33;;;;;;;3.97;1.67;;;;;;;16.20;52.47;98819.81;5092662;28;20063;-70
2022/06/23 03:18:07;;;;;;;2.95;1.50;;;;;;;16.23;52.15;98807.81;5092498;28;20109;-69
2022/06/23 03:20:44;;;;;;;4.75;1.50;;;;;;;16.35;51.50;98815.94;5093091;28;20054;-69
2022/06/23 03:23:29;;;;;;;5.88;2.75;;;;;;;16.44;51.23;98816.44;5074367;28;20044;-69
2022/06/23 03:26:24;;;;;;;6.38;2.03;;;;;;;16.52;51.44;98813.72;5092216;28;20120;-69
2022/06/23 03:29:28;;;;;;;3.80;1.45;;;;;;;16.65;51.09;98823.44;5092180;28;20090;-69
2022/06/23 03:32:18;;;;;;;3.05;1.80;;;;;;;16.73;51.03;98836.34;5070955;28;20139;-69
2022/06/23 03:34:54;;;;;;;;;;;;;;;16.71;51.09;98827.50;5096784;28;20052;-68
2022/06/23 03:37:42;;;;;;;10.88;1.75;;;;;;;16.89;50.50;98845.28;5096486;28;20030;-69
2022/06/23 03:43:18;;;;;;;5.22;1.63;;;;;;;17.10;50.21;98851.03;5095680;28;20055;-69
2022/06/23 03:45:58;;;;;;;9.77;1.75;;;;;;;17.32;49.57;98841.53;5096176;28;20051;-74
2022/06/23 03:48:36;;;;;;;;;;;;;;;17.53;48.96;98844.47;5078442;28;20056;-75
2022/06/23 03:51:11;;;;;;;3.17;1.58;;;;;;;17.83;48.47;98839.34;5096063;28;19928;-69
2022/06/23 03:54:03;;;;;;;3.35;1.50;;;;;;;17.99;48.07;98840.59;5095904;28;20406;-75
2022/06/23 03:56:42;;;;;;;7.68;1.77;;;;;;;18.13;47.99;98842.63;5095635;28;20048;-74
2022/06/23 03:59:30;;;;;;;2.97;1.60;;;;;;;18.30;47.87;98846.69;5095909;28;20565;-74
2022/06/23 04:02:10;;;;;;;4.55;2.03;;;;;;;18.41;47.85;98850.34;5095703;28;20050;-74
2022/06/23 04:04:57;;;;;;;3.67;1.50;;;;;;;18.51;47.26;98853.16;5095922;28;20218;-75
2022/06/23 04:07:53;;;;;;;2.70;1.27;;;;;;;18.57;47.08;98853.56;5095705;28;20050;-74
2022/06/23 04:10:32;;;;;;;4.30;1.38;;;;;;;18.68;47.11;98851.56;5095748;28;20043;-73
2022/06/23 04:13:14;;;;;;;5.65;1.50;;;;;;;18.78;46.95;98853.56;5095740;28;20135;-73
2022/06/23 04:15:43;;;;;;;4.72;1.45;;;;;;;18.92;46.82;98862.78;5095758;28;20535;-73
2022/06/23 04:18:16;;;;;;;2.72;1.50;;;;;;;19.03;45.64;98863.59;5095433;28;20093;-73
2022/06/23 04:20:57;;;;;;;3.20;1.52;;;;;;;19.12;44.76;98855.50;5095529;28;20157;-74
2022/06/23 04:23:42;;;;;;;2.42;1.42;;;;;;;19.23;44.42;98861.94;5096012;28;20044;-73
2022/06/23 04:26:18;;;;;;;8.68;1.63;;;;;;;19.44;44.48;98866.75;5095256;28;20076;-73
2022/06/23 04:28:53;;;;;;;2.95;1.30;;;;;;;19.59;43.76;98871.13;5095600;28;20130;-74
2022/06/23 04:31:30;;;;;;;2.10;1.10;;;;;;;19.72;42.90;98870.25;5094946;28;20052;-72
2022/06/23 04:33:58;;;;;;;3.25;1.45;;;;;;;19.79;42.26;98873.06;5095203;28;20555;-74
2022/06/23 04:36:28;;;;;;;4.82;1.38;;;;;;;19.98;41.95;98873.78;5095085;28;20051;-68
2022/06/23 04:38:58;;;;;;;3.85;1.40;;;;;;;20.15;41.82;98876.53;5095024;28;20082;-69
2022/06/23 04:41:36;;;;;;;3.75;1.65;;;;;;;20.27;40.98;98875.25;5094971;28;20055;-69
2022/06/23 04:44:30;;;;;;;2.90;1.70;;;;;;;20.36;40.82;98872.75;5093878;28;20048;-72
2022/06/23 04:47:05;;;;;;;5.30;1.50;;;;;;;20.45;41.02;98878.75;5094824;28;20083;-69
2022/06/23 04:49:44;;;;;;;5.80;1.45;;;;;;;20.52;40.95;98875.91;5094807;28;20047;-70
2022/06/23 04:52:24;;;;;;;7.05;1.80;;;;;;;20.59;40.76;98878.66;5094433;28;20040;-68
2022/06/23 04:55:18;;;;;;;2.72;1.48;;;;;;;20.75;40.22;98878.97;5095029;28;20047;-70
2022/06/23 04:58:03;;;;;;;6.35;1.30;;;;;;;20.94;39.91;98881.22;5094338;28;20095;-69
2022/06/23 05:00:46;;;;;;;5.15;1.67;;;;;;;21.18;39.41;98883.84;5076480;28;20124;-69
2022/06/23 05:03:30;;;;;;;3.40;1.60;;;;;;;21.49;38.72;98879.06;5094297;28;20052;-75
2022/06/23 05:06:18;;;;;;;4.22;1.70;;;;;;;21.82;38.39;98891.66;5094491;28;20139;-77
2022/06/23 05:08:47;;;;;;;3.70;2.22;;;;;;;21.93;38.41;98878.16;5094518;28;20055;-74
2022/06/23 05:11:41;;;;;;;2.47;1.60;;;;;;;21.96;38.29;98878.09;5094379;28;20048;-72
2022/06/23 05:14:18;;;;;;;6.63;1.48;;;;;;;21.87;37.89;98869.31;5094993;28;20048;-69
2022/06/23 05:16:50;;;;;;;2.42;1.60;;;;;;;21.80;38.00;98883.59;5094499;28;20097;-69
2022/06/23 05:19:25;;;;;;;4.30;1.48;;;;;;;21.90;37.75;98874.13;5094462;28;20054;-73
2022/06/23 05:21:56;;;;;;;4.55;1.38;;;;;;;21.94;37.68;98883.41;5094270;28;20140;-68
2022/06/23 05:24:41;;;;;;;2.97;1.45;;;;;;;22.12;37.85;98880.34;5094199;28;20057;-71
2022/06/23 05:27:21;;;;;;;4.30;1.75;;;;;;;22.22;37.66;98876.53;5093838;28;20459;-72
2022/06/23 05:29:54;;;;;;;4.63;1.55;;;;;;;22.38;37.85;98874.69;5094100;28;20052;-69
2022/06/23 05:32:30;;;;;;;3.80;1.50;;;;;;;22.58;36.97;98883.31;5093622;28;20418;-68
2022/06/23 05:35:05;;;;;;;7.25;1.30;;;;;;;22.75;36.22;98885.06;5093715;28;20514;-70
2022/06/23 05:37:41;;;;;;;3.20;1.52;;;;;;;22.91;35.66;98880.34;5093896;28;20070;-70
2022/06/23 05:40:20;;;;;;;2.33;1.17;;;;;;;23.11;35.01;98892.56;5093852;28;20083;-70
2022/06/23 05:42:50;;;;;;;2.80;1.10;;;;;;;23.07;34.53;98893.88;5093286;28;20074;-71
2022/06/23 05:45:40;;;;;;;3.70;1.10;;;;;;;23.29;34.44;98890.25;5094013;28;20456;-71
2022/06/23 05:48:14;;;;;;;2.00;1.35;;;;;;;23.51;33.97;98896.34;5081572;28;20062;-69
2022/06/23 05:50:56;;;;;;;5.15;1.27;;;;;;;23.55;34.23;98901.94;5093699;28;20526;-69
2022/06/23 05:53:26;;;;;;;1.98;1.25;;;;;;;23.68;33.35;98906.53;5093513;28;20055;-70
2022/06/23 05:56:02;;;;;;;5.55;1.50;;;;;;;23.86;32.14;98911.88;5093511;28;20052;-68
2022/06/23 05:58:46;;;;;;;1.63;1.10;;;;;;;23.86;32.17;98897.66;5093209;28;20394;-69
2022/06/23 06:01:24;;;;;;;2.75;1.27;;;;;;;23.93;32.77;98900.34;5093417;28;20159;-73
2022/06/23 06:03:56;;;;;;;3.17;1.30;;;;;;;24.07;32.06;98900.88;5093366;28;20040;-69
2022/06/23 06:06:23;;;;;;;4.03;1.23;;;;;;;24.21;32.37;98896.94;5093316;28;20147;-69
2022/06/23 06:11:46;;;;;;;2.78;1.13;;;;;;;25.37;30.49;98903.50;5093410;28;20058;-68
2022/06/23 06:14:17;;;;;;;1.88;1.13;;;;;;;26.60;28.99;98909.31;5093260;28;20396;-69
2022/06/23 06:16:44;;;;;;;5.95;1.10;;;;;;;28.90;25.79;98894.91;5093203;28;20052;-69
2022/06/23 06:19:21;;;;;;;5.60;1.20;;;;;;;31.65;22.31;98895.97;5093181;28;20056;-69
2022/06/23 06:21:53;;;;;;;2.75;1.33;;;;;;;31.53;22.08;98905.63;5093122;28;20051;-70
2022/06/23 06:24:35;;;;;;;5.03;2.05;;;;;;;31.58;21.83;98902.09;5093218;28;20411;-70
2022/06/23 06:27:07;;;;;;;3.60;1.30;;;;;;;30.76;22.24;98903.00;5093033;28;20537;-69
2022/06/23 06:29:37;;;;;;;5.65;1.20;;;;;;;29.66;23.21;98907.22;5074523;28;20060;-73
2022/06/23 06:32:18;;;;;;;5.05;1.38;;;;;;;28.54;24.81;98900.47;5092486;28;20055;-70
2022/06/23 06:34:53;;;;;;;2.30;1.45;;;;;;;27.44;25.93;98899.25;5092969;28;20048;-70
2022/06/23 06:37:27;;;;;;;2.38;1.40;;;;;;;26.18;27.93;98906.94;5092813;28;20135;-68
2022/06/23 06:39:58;;;;;;;5.38;1.40;;;;;;;25.54;28.44;98909.97;5092919;28;20465;-70
2022/06/23 06:42:35;;;;;;;7.28;2.25;;;;;;;25.46;28.80;98908.59;5092534;28;20086;-68
2022/06/23 06:45:07;;;;;;;3.55;1.38;;;;;;;25.66;28.33;98909.22;5093584;28;20056;-70
2022/06/23 06:47:36;;;;;;;4.38;1.40;;;;;;;27.36;26.44;98900.72;5092658;28;20261;-72
2022/06/23 06:50:34;;;;;;;4.20;1.30;;;;;;;29.13;23.98;98905.81;5093136;28;20075;-70
2022/06/23 06:53:11;;;;;;;2.58;1.33;;;;;;;31.79;21.22;98898.09;5092099;28;20477;-70
2022/06/23 06:55:44;;;;;;;3.83;1.20;;;;;;;36.63;16.96;98910.09;5092582;28;20052;-69
2022/06/23 06:58:30;;;;;;;2.90;1.50;;;;;;;40.71;13.74;98903.72;5092617;28;20054;-72
2022/06/23 07:01:05;;;;;;;4.55;1.50;;;;;;;42.57;12.38;98905.72;5092461;28;20130;-71
2022/06/23 07:03:35;;;;;;;13.52;3.65;;;;;;;44.43;10.87;98910.84;5092340;28;20080;-68
2022/06/23 07:06:13;;;;;;;3.40;1.83;;;;;;;45.74;9.99;98909.94;5092749;28;20093;-72
2022/06/23 07:09:03;;;;;;;;;;;;;;;46.42;10.08;98909.00;5097514;28;20052;-75
2022/06/23 07:11:52;;;;;;;3.35;1.40;;;;;;;48.70;8.29;98911.03;5096566;28;19923;-69
2022/06/23 07:15:13;;;;;;;1.58;1.30;;;;;;;49.46;7.50;98926.25;5096334;28;20087;-72
2022/06/23 07:17:50;;;;;;;5.93;1.73;;;;;;;50.58;6.58;98928.53;5014677;28;20050;-68
2022/06/23 07:20:28;;;;;;;9.77;1.40;;;;;;;50.52;6.25;98922.16;5096655;28;20044;-68
2022/06/23 07:23:09;;;;;;;2.05;1.00;;;;;;;50.40;6.01;98921.22;5077895;28;20067;-69
2022/06/23 07:25:41;;;;;;;2.92;1.20;;;;;;;51.22;5.71;98918.59;5096165;28;20047;-69
2022/06/23 07:28:25;;;;;;;3.50;1.42;;;;;;;51.48;5.78;98922.72;5096061;28;20056;-70
2022/06/23 07:31:15;;;;;;;8.60;1.33;;;;;;;52.15;5.48;98915.00;5096192;28;20185;-72
2022/06/23 07:33:52;;;;;;;3.55;1.40;;;;;;;52.93;5.01;98921.81;5096145;28;20051;-69
2022/06/23 07:36:30;;;;;;;12.73;7.25;;;;;;;53.88;4.63;98914.72;5096033;28;20067;-68
2022/06/23 07:39:08;;;;;;;4.97;2.10;;;;;;;53.61;4.74;98921.22;5096184;28;20139;-72
2022/06/23 07:41:52;;;;;;;4.70;1.48;;;;;;;53.66;4.14;98916.28;5096020;28;20059;-69
2022/06/23 07:44:42;;;;;;;6.65;1.50;;;;;;;54.53;4.29;98926.25;5095996;28;20526;-69
2022/06/23 07:47:09;;;;;;;2.40;1.65;;;;;;;54.95;4.16;98925.00;5095718;28;20096;-70
2022/06/23 07:49:36;;;;;;;13.38;8.55;;;;;;;55.20;3.63;98919.84;5061149;28;20051;-72
2022/06/23 07:52:06;;;;;;;5.40;1.80;;;;;;;55.71;3.30;98934.59;5095618;28;20048;-72
2022/06/23 07:54:35;;;;;;;5.63;1.90;;;;;;;56.14;3.53;98926.56;5095870;28;20044;-72
2022/06/23 07:57:03;;;;;;;3.53;1.85;;;;;;;56.95;3.24;98924.16;5095674;28;20419;-73
2022/06/23 07:59:40;;;;;;;5.80;2.20;;;;;;;57.36;2.78;98923.94;5095367;28;20060;-72
2022/06/23 08:02:19;;;;;;;8.00;1.98;;;;;;;56.34;3.25;98921.66;5095248;28;20055;-72
2022/06/23 08:05:14;;;;;;;5.22;2.00;;;;;;;55.30;3.37;98914.44;5095924;28;20062;-71
2022/06/23 08:07:42;;;;;;;2.75;1.77;;;;;;;55.50;3.90;98912.59;5095775;28;20036;-73
2022/06/23 08:10:24;;;;;;;3.33;1.85;;;;;;;55.98;2.98;98911.50;5095594;28;20107;-75
2022/06/23 08:12:59;;;;;;;2.38;1.65;;;;;;;56.63;3.14;98898.59;5095404;28;20044;-75
2022/06/23 08:18:51;;;;;;;4.78;2.03;;;;;;;56.19;3.15;98914.16;5095107;28;20054;-76
2022/06/23 08:21:29;;;;;;;3.97;2.10;;;;;;;56.88;2.77;98912.53;5095240;28;20139;-77
2022/06/23 08:24:07;;;;;;;3.17;1.90;;;;;;;56.94;2.69;98912.88;5095757;28;20052;-75
2022/06/23 08:26:38;;;;;;;5.40;1.90;;;;;;;56.92;3.13;98913.53;5095607;28;20052;-75
2022/06/23 08:29:09;;;;;;;5.38;2.03;;;;;;;57.20;2.40;98923.13;5095275;28;20056;-75
2022/06/23 08:31:38;;;;;;;3.97;2.25;;;;;;;57.53;2.69;98919.53;5095112;28;20384;-77
2022/06/23 08:34:25;;;;;;;10.93;5.15;;;;;;;58.35;1.96;98923.34;5094636;28;20415;-76
2022/06/23 08:37:00;;;;;;;2.25;1.95;;;;;;;58.24;2.21;98925.13;5095039;28;20048;-78
2022/06/23 08:39:53;;;;;;;3.35;2.28;;;;;;;58.72;2.09;98919.75;5095039;28;20139;-75
2022/06/23 08:42:31;;;;;;;3.55;2.25;;;;;;;59.02;2.41;98924.03;5094319;28;20450;-69
2022/06/23 08:45:25;;;;;;;5.10;2.38;;;;;;;59.79;2.13;98928.69;5094909;28;20135;-70
2022/06/23 08:48:07;;;;;;;3.83;2.20;;;;;;;59.42;2.20;98913.69;5076905;28;20047;-72
2022/06/23 08:50:37;;;;;;;5.95;2.50;;;;;;;58.16;2.16;98912.81;5094608;28;20379;-70
2022/06/23 08:53:09;;;;;;;4.47;2.40;;;;;;;57.96;2.25;98899.88;5094458;28;20048;-70
2022/06/23 08:55:52;;;;;;;4.72;2.38;;;;;;;58.71;1.93;98906.22;5094594;28;20151;-70
2022/06/23 08:58:31;;;;;;;5.57;2.30;;;;;;;58.93;1.79;98895.91;5094691;28;20052;-70
2022/06/23 09:01:32;;;;;;;4.82;2.50;;;;;;;59.55;1.99;98907.50;5094101;28;20062;-69
2022/06/23 09:04:05;;;;;;;4.25;2.85;;;;;;;59.26;1.30;98907.03;5094577;28;20494;-71
2022/06/23 09:06:36;;;;;;;7.72;2.38;;;;;;;59.81;1.27;98905.47;5075861;28;20461;-69
2022/06/23 09:09:05;;;;;;;6.75;2.55;;;;;;;60.21;1.02;98900.25;5094813;28;20051;-70
2022/06/23 09:11:46;;;;;;;5.03;2.40;;;;;;;60.25;1.57;98902.63;5094397;28;20075;-69
2022/06/23 09:14:53;;;;;;;5.38;2.42;;;;;;;59.60;1.68;98905.44;5093857;28;20139;-70
2022/06/23 09:17:38;;;;;;;3.40;2.60;;;;;;;58.95;1.49;98910.97;5053292;28;20496;-69
2022/06/23 09:20:14;;;;;;;6.28;2.65;;;;;;;58.00;2.22;98909.03;5076382;28;20052;-69
2022/06/23 09:22:44;;;;;;;4.90;3.00;;;;;;;58.32;1.70;98907.50;5093951;28;20403;-69
2022/06/23 09:25:12;;;;;;;21.20;7.30;;;;;;;57.90;1.92;98899.59;5093908;28;20139;-69
2022/06/23 09:28:19;;;;;;;6.00;3.08;;;;;;;58.25;2.41;98905.72;5093783;28;20044;-70
2022/06/23 09:30:46;;;;;;;5.95;2.58;;;;;;;58.29;1.74;98914.88;5082559;28;20070;-71
2022/06/23 09:33:41;;;;;;;6.47;2.40;;;;;;;58.93;2.05;98916.13;5093404;28;20048;-68
2022/06/23 09:36:26;;;;;;;2.30;1.80;;;;;;;57.92;1.90;98905.69;5093664;28;20574;-73
2022/06/23 09:39:02;;;;;;;2.22;1.73;;;;;;;51.86;4.36;98899.56;5093732;28;20058;-69
2022/06/23 09:41:41;;;;;;;6.73;1.53;;;;;;;45.65;7.00;98904.66;5093590;28;20063;-69
2022/06/23 09:44:32;;;;;;;4.63;1.50;;;;;;;41.16;9.80;98901.66;5093415;28;20045;-69
2022/06/23 09:47:48;;;;;;;2.63;1.20;;;;;;;37.70;11.89;98897.91;5094775;28;20060;-68
2022/06/23 09:50:37;;;;;;;2.88;1.20;;;;;;;35.21;14.20;98908.09;5024474;28;20057;-68
2022/06/23 09:53:16;;;;;;;3.05;1.05;;;;;;;33.76;15.69;98912.03;5095524;28;20063;-68
2022/06/23 09:55:58;;;;;;;3.85;1.38;;;;;;;32.47;16.54;98910.47;5093241;28;20185;-68
2022/06/23 09:58:43;;;;;;;4.47;1.35;;;;;;;31.75;17.14;98916.84;5093711;28;20056;-71
2022/06/23 10:01:29;;;;;;;7.60;1.33;;;;;;;31.39;17.63;98915.00;5093386;28;20079;-68
2022/06/23 10:04:18;;;;;;;2.45;1.33;;;;;;;30.98;18.53;98917.91;5093274;28;20387;-68
2022/06/23 10:07:16;;;;;;;6.22;1.23;;;;;;;30.35;19.19;98921.75;5093053;28;20048;-69
2022/06/23 10:10:17;;;;;;;6.10;1.50;;;;;;;29.59;19.68;98921.84;5093176;28;20414;-69
2022/06/23 10:13:03;;;;;;;3.97;1.60;;;;;;;29.35;20.49;98926.56;5093108;28;20248;-68
2022/06/23 10:15:35;;;;;;;3.65;1.42;;;;;;;29.08;21.06;98923.63;5093680;28;20396;-68
2022/06/23 10:18:20;;;;;;;6.00;1.60;;;;;;;28.62;22.01;98918.16;5092906;28;20109;-68
2022/06/23 10:21:20;;;;;;;4.05;1.60;;;;;;;28.32;22.23;98916.81;5074998;28;20568;-68
2022/06/23 10:24:21;;;;;;;4.90;1.80;;;;;;;28.03;23.05;98922.00;5093120;28;20044;-68
2022/06/23 10:27:02;;;;;;;16.38;9.00;;;;;;;27.84;23.35;98925.94;5075340;28;20566;-69
2022/06/23 10:29:44;;;;;;;2.80;1.65;;;;;;;27.77;23.48;98927.00;5074853;28;20048;-70
2022/06/23 10:32:26;;;;;;;3.25;1.95;;;;;;;27.70;24.02;98924.41;5093050;28;20506;-72
2022/06/23 10:35:02;;;;;;;4.07;1.60;;;;;;;27.56;24.07;98921.25;5092892;28;20044;-68
2022/06/23 10:37:57;;;;;;;2.28;1.40;;;;;;;27.27;24.62;98929.22;5092775;28;20101;-68
2022/06/23 10:40:24;;;;;;;4.95;1.70;;;;;;;27.17;24.66;98924.63;5092085;28;20079;-69
2022/06/23 10:43:48;;;;;;;3.85;1.60;;;;;;;27.26;24.34;98928.41;5092650;28;20054;-69
2022/06/23 10:46:30;;;;;;;4.13;1.40;;;;;;;27.20;24.28;98923.72;5093021;28;20143;-71
2022/06/23 10:49:16;;;;;;;4.82;1.60;;;;;;;27.16;24.56;98923.00;5092878;28;20502;-68
2022/06/23 10:52:20;;;;;;;5.00;1.77;;;;;;;27.16;24.05;98925.88;5092508;28;20052;-71
2022/06/23 10:55:07;;;;;;;2.95;1.50;;;;;;;27.15;24.48;98927.13;5092659;28;20052;-70
2022/06/23 10:57:53;;;;;;;5.20;1.42;;;;;;;26.58;25.42;98930.97;5092462;28;20150;-69
2022/06/23 11:00:26;;;;;;;2.60;1.80;;;;;;;26.55;25.58;98931.88;5092304;28;20079;-69
2022/06/23 11:03:43;;;;;;;6.43;1.73;;;;;;;26.58;25.67;98926.06;5092349;28;20143;-73
2022/06/23 11:06:24;;;;;;;10.38;2.72;;;;;;;26.59;25.02;98927.66;5021294;28;20089;-69
2022/06/23 11:09:00;;;;;;;3.17;1.50;;;;;;;26.58;25.86;98936.69;5092410;28;20139;-68
2022/06/23 11:11:41;;;;;;;3.08;1.50;;;;;;;26.53;25.43;98935.19;5091884;28;20076;-75
2022/06/23 11:14:39;;;;;;;3.63;1.50;;;;;;;26.50;25.69;98936.09;5092037;28;20044;-75
2022/06/23 11:17:34;;;;;;;2.58;1.95;;;;;;;26.62;25.89;98938.19;5091326;28;20055;-74
2022/06/23 11:20:22;;;;;;;8.18;1.83;;;;;;;26.59;25.95;98938.28;5091947;28;20036;-69
2022/06/23 11:23:26;;;;;;;7.25;2.10;;;;;;;26.51;26.12;98937.72;5091318;28;20492;-80
2022/06/23 11:26:17;;;;;;;2.30;1.40;;;;;;;26.45;26.37;98938.72;5081425;28;20052;-75
2022/06/23 11:29:16;;;;;;;2.92;1.75;;;;;;;26.27;26.29;98936.41;5091056;28;20039;-73
2022/06/23 11:31:48;;;;;;;3.83;1.40;;;;;;;26.12;26.55;98942.97;5091862;28;20044;-78
2022/06/23 11:34:53;;;;;;;5.13;1.50;;;;;;;26.14;26.55;98944.13;5091637;28;20044;-70
2022/06/23 11:37:29;;;;;;;7.20;1.70;;;;;;;26.08;26.42;98943.06;5022178;28;20064;-69
2022/06/23 11:39:59;;;;;;;5.70;1.80;;;;;;;26.08;26.63;98943.06;5027917;28;20147;-76
2022/06/23 11:42:53;;;;;;;2.88;1.60;;;;;;;26.16;26.13;98933.06;5022331;28;20484;-71
2022/06/23 11:46:08;;;;;;;4.40;1.67;;;;;;;26.30;25.72;98944.06;5012418;28;20128;-70
2022/06/23 11:48:44;;;;;;;66.00;28.40;;;;;;;26.33;25.51;98931.75;5010481;28;20525;-74
2022/06/23 11:51:32;;;;;;;4.38;1.90;;;;;;;26.34;25.49;98932.53;5027710;28;20499;-71
2022/06/23 11:54:20;;;;;;;3.00;1.80;;;;;;;26.26;25.59;98934.00;5021361;28;20045;-71
2022/06/23 11:57:04;;;;;;;2.58;1.42;;;;;;;26.32;25.19;98935.84;5017406;28;20424;-68
2022/06/23 11:59:44;;;;;;;4.00;1.73;;;;;;;26.27;25.77;98935.59;5024610;28;20057;-70
2022/06/23 12:03:06;;;;;;;11.57;2.70;;;;;;;26.35;25.60;98937.00;5003122;28;20060;-74
2022/06/23 12:06:23;;;;;;;3.40;1.98;;;;;;;26.12;25.74;98955.19;5014134;28;20049;-76
2022/06/23 12:09:01;;;;;;;5.95;1.55;;;;;;;26.05;26.16;98949.66;5041616;28;20056;-76
2022/06/23 12:11:34;;;;;;;4.18;1.50;;;;;;;26.01;26.37;98943.28;5043023;28;20049;-71
2022/06/23 12:14:10;;;;;;;2.92;1.50;;;;;;;26.01;26.60;98943.28;5037569;28;20100;-71
2022/06/23 12:16:49;;;;;;;11.93;1.80;;;;;;;26.02;26.15;98950.56;5015503;28;20047;-71
2022/06/23 12:19:19;;;;;;;3.83;1.80;;;;;;;25.84;26.76;98941.69;5034852;28;20492;-71
2022/06/23 12:22:20;;;;;;;6.13;1.80;;;;;;;25.77;26.47;98950.44;5042188;28;20547;-70
2022/06/23 12:25:25;;;;;;;23.35;3.35;;;;;;;25.62;26.04;98937.03;5045436;28;20124;-71
2022/06/23 12:28:22;;;;;;;15.07;1.77;;;;;;;25.55;26.68;98952.25;5011520;28;20565;-73
2022/06/23 12:31:30;;;;;;;8.60;2.55;;;;;;;25.55;26.70;98945.78;5027403;28;20127;-72
2022/06/23 12:34:08;;;;;;;3.10;1.63;;;;;;;25.59;27.08;98941.59;5045411;28;20059;-69
2022/06/23 12:37:09;;;;;;;5.87;1.97;;;;;;;25.58;27.03;98942.81;5017099;28;20049;-68
2022/06/23 12:39:47;;;;;;;3.10;2.03;;;;;;;25.64;26.84;98952.41;5074683;28;20134;-70
2022/06/23 12:42:33;;;;;;;3.65;2.30;;;;;;;25.72;26.51;98953.84;5089474;28;20400;-75
2022/06/23 12:45:31;;;;;;;3.53;1.67;;;;;;;25.81;25.99;98951.13;5093946;28;20090;-70
2022/06/23 12:48:31;;;;;;;6.10;1.85;;;;;;;25.82;26.28;98946.25;5092583;28;20044;-76
2022/06/23 12:51:08;;;;;;;4.60;1.70;;;;;;;25.68;26.33;98953.13;5081094;28;20048;-76
2022/06/23 12:53:56;;;;;;;5.55;1.85;;;;;;;25.59;26.88;98952.97;5091666;28;20453;-78